Time;durP1;ratioP1;P1;durP2;ratioP2;P2;SDS_P1;SDS_P2;PMS_P1;PMS_P2;Temp;Humidity;BMP_temperature;BMP_pressure;BME280_temperature;BME280_humidity;BME280_pressure;Samples;Min_cycle;Max_cycle;Signal;HPM_P1;HPM_P2
2023/04/17 00:02:14;;;;;;;;;;;;;;;7.13;100.00;96832.75;5095908;28;20371;-70
2023/04/17 00:04:39;;;;;;;;;;;;;;;7.09;100.00;96835.69;5095488;28;19945;-70
2023/04/17 00:07:06;;;;;;;;;;;;;;;7.09;100.00;96838.31;5095150;28;19963;-77
2023/04/17 00:09:32;;;;;;;;;;;;;;;7.08;100.00;96836.72;5095227;28;20340;-71
2023/04/17 00:11:58;;;;;;;;;;;;;;;7.08;100.00;96835.91;5095348;28;19944;-71
2023/04/17 00:14:24;;;;;;;;;;;;;;;7.08;100.00;96836.72;5096244;28;19936;-71
2023/04/17 00:16:51;;;;;;;;;;;;;;;7.09;100.00;96838.31;5095875;28;19931;-72
2023/04/17 00:19:17;;;;;;;;;;;;;;;7.10;100.00;96839.94;5095270;28;19945;-72
2023/04/17 00:21:42;;;;;;;;;;;;;;;7.09;100.00;96840.13;5093926;28;19932;-71
2023/04/17 00:24:08;;;;;;;;;;;;;;;7.06;100.00;96841.31;5096021;28;19990;-84
2023/04/17 00:26:34;;;;;;;;;;;;;;;7.06;100.00;96836.09;5095268;28;19961;-75
2023/04/17 00:29:00;;;;;;;;;;;;;;;7.05;100.00;96837.06;5095000;28;19942;-69
2023/04/17 00:31:26;;;;;;;;;;;;;;;7.08;100.00;96836.72;5096027;28;19952;-69
2023/04/17 00:33:52;;;;;;;;;;;;;;;7.09;100.00;96830.47;5095297;28;19940;-70
2023/04/17 00:36:18;;;;;;;;;;;;;;;7.10;100.00;96836.53;5095040;28;19951;-69
2023/04/17 00:38:44;;;;;;;;;;;;;;;7.10;100.00;96832.13;5095761;28;19935;-69
2023/04/17 00:41:10;;;;;;;;;;;;;;;7.11;100.00;96825.09;5094857;28;19997;-69
2023/04/17 00:43:36;;;;;;;;;;;;;;;7.14;100.00;96829.13;5095187;28;19935;-71
2023/04/17 00:46:03;;;;;;;;;;;;;;;7.12;100.00;96821.50;5094730;28;19954;-79
2023/04/17 00:48:28;;;;;;;;;;;;;;;7.09;100.00;96814.84;5094813;28;19936;-78
2023/04/17 00:50:54;;;;;;;;;;;;;;;7.08;100.00;96815.84;5094815;28;20006;-79
2023/04/17 00:53:20;;;;;;;;;;;;;;;7.08;100.00;96821.06;5094941;28;19939;-79
2023/04/17 00:55:49;;;;;;;;;;;;;;;7.10;100.00;96826.09;5094692;28;19933;-79
2023/04/17 00:58:15;;;;;;;;;;;;;;;7.09;100.00;96822.66;5094851;28;19948;-78
2023/04/17 01:00:41;;;;;;;;;;;;;;;7.11;100.00;96814.66;5094530;28;19940;-71
2023/04/17 01:03:07;;;;;;;;;;;;;;;7.10;100.00;96813.88;5095100;28;20276;-71
2023/04/17 01:05:34;;;;;;;;;;;;;;;7.07;100.00;96809.00;5094452;28;19940;-70
2023/04/17 01:08:00;;;;;;;;;;;;;;;7.06;100.00;96811.81;5093269;28;20416;-72
2023/04/17 01:10:26;;;;;;;;;;;;;;;7.05;100.00;96810.19;5094417;28;19940;-71
2023/04/17 01:13:05;;;;;;;;;;;;;;;7.05;100.00;96807.59;5094387;28;20399;-72
2023/04/17 01:15:31;;;;;;;;;;;;;;;7.06;100.00;96804.78;5095470;28;19946;-71
2023/04/17 01:17:57;;;;;;;;;;;;;;;7.07;100.00;96805.59;5094248;28;19942;-71
2023/04/17 01:20:24;;;;;;;;;;;;;;;7.08;100.00;96805.41;5093116;28;19940;-90
2023/04/17 01:22:53;;;;;;;;;;;;;;;7.08;100.00;96807.22;5094196;28;20404;-74
2023/04/17 01:25:18;;;;;;;;;;;;;;;7.10;100.00;96810.44;5094217;28;19951;-74
2023/04/17 01:27:45;;;;;;;;;;;;;;;7.08;100.00;96807.22;5094056;28;20002;-73
2023/04/17 01:30:11;;;;;;;;;;;;;;;7.06;100.00;96799.56;5092784;28;20435;-73
2023/04/17 01:32:36;;;;;;;;;;;;;;;7.07;100.00;96811.59;5094662;28;19935;-74
2023/04/17 01:35:02;;;;;;;;;;;;;;;7.05;100.00;96802.38;5093450;28;19945;-73
2023/04/17 01:37:28;;;;;;;;;;;;;;;7.03;100.00;96807.75;5093939;28;20061;-70
2023/04/17 01:39:54;;;;;;;;;;;;;;;7.01;100.00;96804.53;5094601;28;20032;-79
2023/04/17 01:42:21;;;;;;;;;;;;;;;7.01;100.00;96812.34;5094150;28;20403;-89
2023/04/17 01:44:47;;;;;;;;;;;;;;;7.01;100.00;96799.31;5094110;28;19938;-86
2023/04/17 01:47:12;;;;;;;;;;;;;;;7.03;100.00;96812.16;5093918;28;20368;-85
2023/04/17 01:49:38;;;;;;;;;;;;;;;7.02;100.00;96821.81;5094489;28;19974;-88
2023/04/17 01:52:05;;;;;;;;;;;;;;;7.03;100.00;96812.16;5094536;28;19939;-88
2023/04/17 01:54:30;;;;;;;;;;;;;;;7.04;100.00;96805.97;5093967;28;19940;-89
2023/04/17 01:56:56;;;;;;;;;;;;;;;7.04;100.00;96808.59;5093935;28;19944;-87
2023/04/17 01:59:22;;;;;;;;;;;;;;;7.04;100.00;96809.38;5092932;28;20433;-71
2023/04/17 02:01:49;;;;;;;;;;;;;;;7.04;100.00;96803.38;5093778;28;19941;-70
2023/04/17 02:04:15;;;;;;;;;;;;;;;7.04;100.00;96801.56;5093732;28;20400;-71
2023/04/17 02:06:40;;;;;;;;;;;;;;;7.05;100.00;96807.59;5093626;28;20050;-70
2023/04/17 02:09:06;;;;;;;;;;;;;;;7.06;100.00;96801.38;5093692;28;19963;-71
2023/04/17 02:11:32;;;;;;;;;;;;;;;7.08;100.00;96800.19;5093658;28;20391;-71
2023/04/17 02:13:58;;;;;;;;;;;;;;;7.09;100.00;96801.81;5094201;28;19942;-72
2023/04/17 02:16:24;;;;;;;;;;;;;;;7.09;100.00;96801.81;5094020;28;19936;-71
2023/04/17 02:18:50;;;;;;;;;;;;;;;7.09;100.00;96791.38;5094156;28;19943;-71
2023/04/17 02:21:16;;;;;;;;;;;;;;;7.10;100.00;96800.03;5093625;28;19934;-70
2023/04/17 02:23:42;;;;;;;;;;;;;;;7.08;100.00;96804.63;5093583;28;19940;-70
2023/04/17 02:26:08;;;;;;;;;;;;;;;7.04;100.00;96801.56;5094019;28;20437;-71
2023/04/17 02:28:34;;;;;;;;;;;;;;;7.01;100.00;96801.91;5093445;28;19935;-70
2023/04/17 02:31:00;;;;;;;;;;;;;;;7.02;100.00;96792.31;5093317;28;19973;-71
2023/04/17 02:33:26;;;;;;;;;;;;;;;7.00;100.00;96796.91;5093480;28;19952;-71
2023/04/17 02:35:52;;;;;;;;;;;;;;;6.97;100.00;96805.09;5093405;28;19940;-72
2023/04/17 02:38:18;;;;;;;;;;;;;;;6.97;100.00;96805.09;5093802;28;19941;-70
2023/04/17 02:40:44;;;;;;;;;;;;;;;6.95;100.00;96794.03;5093403;28;20035;-70
2023/04/17 02:43:12;;;;;;;;;;;;;;;6.94;100.00;96800.25;5093604;28;20048;-70
2023/04/17 02:45:38;;;;;;;;;;;;;;;6.94;100.00;96798.44;5094683;28;19934;-70
2023/04/17 02:48:04;;;;;;;;;;;;;;;6.94;100.00;96806.28;5096986;28;19957;-70
2023/04/17 02:50:30;;;;;;;;;;;;;;;6.91;100.00;96799.63;5097070;28;20307;-70
2023/04/17 02:52:56;;;;;;;;;;;;;;;6.91;100.00;96804.06;5097172;28;20393;-72
2023/04/17 02:55:23;;;;;;;;;;;;;;;6.90;100.00;96784.97;5095818;28;20427;-71
2023/04/17 02:57:49;;;;;;;;;;;;;;;6.90;100.00;96795.41;5097421;28;19941;-71
2023/04/17 03:00:14;;;;;;;;;;;;;;;6.89;100.00;96803.44;5096816;28;19941;-71
2023/04/17 03:02:40;;;;;;;;;;;;;;;6.91;100.00;96804.06;5097006;28;20464;-71
2023/04/17 03:05:06;;;;;;;;;;;;;;;6.91;100.00;96799.63;5096709;28;20008;-72
2023/04/17 03:07:32;;;;;;;;;;;;;;;6.91;100.00;96804.84;5096603;28;19962;-71
2023/04/17 03:09:58;;;;;;;;;;;;;;;6.95;100.00;96804.47;5096621;28;19942;-72
2023/04/17 03:12:24;;;;;;;;;;;;;;;6.96;100.00;96796.47;5097564;28;20284;-71
2023/04/17 03:14:50;;;;;;;;;;;;;;;6.97;100.00;96798.09;5096591;28;19955;-73
2023/04/17 03:17:16;;;;;;;;;;;;;;;6.99;100.00;96806.53;5096625;28;20039;-71
2023/04/17 03:19:42;;;;;;;;;;;;;;;7.01;100.00;96804.53;5096547;28;19939;-70
2023/04/17 03:22:08;;;;;;;;;;;;;;;7.02;100.00;96802.75;5096489;28;19948;-70
2023/04/17 03:24:34;;;;;;;;;;;;;;;7.03;100.00;96796.53;5096476;28;20027;-70
2023/04/17 03:27:01;;;;;;;;;;;;;;;7.05;100.00;96802.38;5096884;28;19961;-71
2023/04/17 03:29:27;;;;;;;;;;;;;;;7.08;100.00;96802.00;5096285;28;19976;-87
2023/04/17 03:31:53;;;;;;;;;;;;;;;7.08;100.00;96802.81;5096365;28;19992;-78
2023/04/17 03:34:20;;;;;;;;;;;;;;;7.06;100.00;96802.19;5097117;28;20034;-77
2023/04/17 03:36:46;;;;;;;;;;;;;;;7.05;100.00;96803.16;5096118;28;19954;-78
2023/04/17 03:39:12;;;;;;;;;;;;;;;7.07;100.00;96803.78;5096197;28;19943;-79
2023/04/17 03:41:38;;;;;;;;;;;;;;;7.09;100.00;96806.22;5096087;28;20470;-76
2023/04/17 03:44:04;;;;;;;;;;;;;;;7.08;100.00;96807.22;5096354;28;19938;-77
2023/04/17 03:46:30;;;;;;;;;;;;;;;7.04;100.00;96809.38;5096270;28;20323;-69
2023/04/17 03:48:56;;;;;;;;;;;;;;;7.02;100.00;96805.34;5096049;28;19940;-72
2023/04/17 03:51:22;;;;;;;;;;;;;;;7.00;100.00;96808.16;5095941;28;19939;-71
2023/04/17 03:53:48;;;;;;;;;;;;;;;7.00;100.00;96815.97;5095262;28;20390;-71
2023/04/17 03:56:14;;;;;;;;;;;;;;;7.01;100.00;96814.97;5096389;28;19940;-71
2023/04/17 03:58:40;;;;;;;;;;;;;;;7.00;100.00;96813.34;5095220;28;20053;-71
2023/04/17 04:01:09;;;;;;;;;;;;;;;7.02;100.00;96819.19;5095806;28;20403;-71
2023/04/17 04:03:35;;;;;;;;;;;;;;;7.03;100.00;96817.38;5095058;28;19944;-70
2023/04/17 04:06:01;;;;;;;;;;;;;;;7.02;100.00;96823.59;5095537;28;19942;-71
2023/04/17 04:08:27;;;;;;;;;;;;;;;7.00;100.00;96815.97;5096133;28;20381;-77
2023/04/17 04:10:53;;;;;;;;;;;;;;;6.99;100.00;96818.75;5095508;28;20407;-77
2023/04/17 04:13:19;;;;;;;;;;;;;;;6.97;100.00;96818.13;5095498;28;20482;-77
2023/04/17 04:15:45;;;;;;;;;;;;;;;6.94;100.00;96824.53;5095451;28;19947;-76
2023/04/17 04:18:11;;;;;;;;;;;;;;;6.91;100.00;96824.91;5095347;28;19941;-76
2023/04/17 04:20:37;;;;;;;;;;;;;;;6.89;100.00;96826.91;5096248;28;19939;-76
2023/04/17 04:23:03;;;;;;;;;;;;;;;6.89;100.00;96830.31;5095575;28;20056;-75
2023/04/17 04:25:29;;;;;;;;;;;;;;;6.88;100.00;96828.66;5095233;28;19938;-71
2023/04/17 04:27:55;;;;;;;;;;;;;;;6.88;100.00;96835.69;5095125;28;20324;-71
2023/04/17 04:30:24;;;;;;;;;;;;;;;6.85;100.00;96831.66;5095144;28;19975;-70
2023/04/17 04:32:50;;;;;;;;;;;;;;;6.86;100.00;96837.69;5095010;28;20420;-70
2023/04/17 04:35:16;;;;;;;;;;;;;;;6.84;100.00;96831.84;5094987;28;20030;-71
2023/04/17 04:37:45;;;;;;;;;;;;;;;6.83;100.00;96832.84;5094880;28;19953;-70
2023/04/17 04:40:11;;;;;;;;;;;;;;;6.82;100.00;96839.84;5094858;28;19950;-71
2023/04/17 04:42:38;;;;;;;;;;;;;;;6.82;100.00;96836.44;5094052;28;19945;-71
2023/04/17 04:45:05;;;;;;;;;;;;;;;6.82;100.00;96837.22;5094339;28;19947;-69
2023/04/17 04:47:31;;;;;;;;;;;;;;;6.83;100.00;96832.84;5093963;28;19960;-69
2023/04/17 04:49:57;;;;;;;;;;;;;;;6.84;100.00;96830.03;5094795;28;19949;-70
2023/04/17 04:52:22;;;;;;;;;;;;;;;6.86;100.00;96830.66;5093669;28;19932;-69
2023/04/17 04:54:48;;;;;;;;;;;;;;;6.86;100.00;96835.06;5094274;28;19939;-70
2023/04/17 04:57:14;;;;;;;;;;;;;;;6.87;100.00;96836.69;5093666;28;19975;-69
2023/04/17 04:59:40;;;;;;;;;;;;;;;6.87;100.00;96832.28;5093907;28;19957;-69
2023/04/17 05:02:06;;;;;;;;;;;;;;;6.89;100.00;96839.94;5094798;28;19941;-76
2023/04/17 05:04:31;;;;;;;;;;;;;;;6.91;100.00;96845.78;5094441;28;19931;-90
2023/04/17 05:06:58;;;;;;;;;;;;;;;6.90;100.00;96844.13;5095150;28;20310;-89
2023/04/17 05:09:23;;;;;;;;;;;;;;;6.89;100.00;96845.16;5094524;28;20002;-91
2023/04/17 05:11:52;;;;;;;;;;;;;;;6.89;100.00;96842.53;5095241;28;19991;-92
2023/04/17 05:14:18;;;;;;;;;;;;;;;6.89;100.00;96842.53;5095243;28;19945;-92
2023/04/17 05:16:44;;;;;;;;;;;;;;;6.89;100.00;96843.34;5096298;28;19939;-93
2023/04/17 05:19:10;;;;;;;;;;;;;;;6.88;100.00;96839.09;5095277;28;19961;-88
2023/04/17 05:21:36;;;;;;;;;;;;;;;6.88;100.00;96846.91;5093620;28;19983;-70
2023/04/17 05:24:02;;;;;;;;;;;;;;;6.86;100.00;96848.91;5093536;28;19988;-72
2023/04/17 05:26:28;;;;;;;;;;;;;;;6.85;100.00;96843.91;5093442;28;19940;-72
2023/04/17 05:28:54;;;;;;;;;;;;;;;6.85;100.00;96842.09;5093509;28;19936;-72
2023/04/17 05:31:20;;;;;;;;;;;;;;;6.85;100.00;96844.69;5093343;28;20031;-71
2023/04/17 05:33:46;;;;;;;;;;;;;;;6.87;100.00;96844.53;5093457;28;19955;-71
2023/04/17 05:36:12;;;;;;;;;;;;;;;6.89;100.00;96847.75;5093181;28;19987;-71
2023/04/17 05:38:38;;;;;;;;;;;;;;;6.91;100.00;96848.38;5093401;28;19988;-75
2023/04/17 05:41:06;;;;;;;;;;;;;;;6.93;100.00;96842.97;5093500;28;20040;-76
2023/04/17 05:43:32;;;;;;;;;;;;;;;6.94;100.00;96844.59;5093306;28;19938;-75
2023/04/17 05:45:57;;;;;;;;;;;;;;;6.95;100.00;96854.00;5093316;28;20305;-76
2023/04/17 05:48:24;;;;;;;;;;;;;;;6.95;100.00;96846.19;5093215;28;19952;-75
2023/04/17 05:50:49;;;;;;;;;;;;;;;6.96;100.00;96853.84;5093114;28;19946;-75
2023/04/17 05:53:15;;;;;;;;;;;;;;;6.97;100.00;96852.84;5093805;28;19948;-75
2023/04/17 05:55:41;;;;;;;;;;;;;;;6.97;100.00;96859.84;5093412;28;19983;-71
2023/04/17 05:58:07;;;;;;;;;;;;;;;6.98;100.00;96862.28;5093403;28;19945;-70
2023/04/17 06:00:33;;;;;;;;;;;;;;;6.99;100.00;96863.91;5093150;28;19941;-75
2023/04/17 06:03:02;;;;;;;;;;;;;;;6.99;100.00;96852.66;5093067;28;19945;-75
2023/04/17 06:05:28;;;;;;;;;;;;;;;6.98;100.00;96857.06;5093073;28;19940;-75
2023/04/17 06:07:54;;;;;;;;;;;;;;;6.98;100.00;96859.66;5092797;28;19961;-76
2023/04/17 06:10:20;;;;;;;;;;;;;;;6.99;100.00;96858.69;5093479;28;19943;-75
2023/04/17 06:12:46;;;;;;;;;;;;;;;7.00;100.00;96854.28;5093280;28;20306;-75
2023/04/17 06:15:12;;;;;;;;;;;;;;;7.03;100.00;96856.50;5092730;28;20497;-69
2023/04/17 06:17:38;;;;;;;;;;;;;;;7.06;100.00;96862.16;5093013;28;19943;-76
2023/04/17 06:20:08;;;;;;;;;;;;;;;7.06;100.00;96856.16;5093428;28;19945;-77
2023/04/17 06:22:35;;;;;;;;;;;;;;;7.08;100.00;96862.00;5097888;28;19941;-77
2023/04/17 06:25:01;;;;;;;;;;;;;;;7.07;100.00;96870.78;5097450;28;19949;-79
2023/04/17 06:27:27;;;;;;;;;;;;;;;7.07;100.00;96868.97;5096895;28;19982;-79
2023/04/17 06:29:53;;;;;;;;;;;;;;;7.06;100.00;96871.78;5096677;28;20443;-78
2023/04/17 06:32:19;;;;;;;;;;;;;;;7.06;100.00;96869.19;5098011;28;19983;-71
2023/04/17 06:34:44;;;;;;;;;;;;;;;7.07;100.00;96871.59;5095653;28;19946;-71
2023/04/17 06:37:10;;;;;;;;;;;;;;;7.08;100.00;96875.03;5097052;28;19961;-77
2023/04/17 06:39:36;;;;;;;;;;;;;;;7.07;100.00;96876.81;5097318;28;19946;-78
2023/04/17 06:42:02;;;;;;;;;;;;;;;7.07;100.00;96871.59;5097825;28;19947;-77
2023/04/17 06:44:28;;;;;;;;;;;;;;;7.09;100.00;96874.81;5096776;28;19985;-78
2023/04/17 06:46:54;;;;;;;;;;;;;;;7.10;100.00;96871.22;5096976;28;19963;-79
2023/04/17 06:49:20;;;;;;;;;;;;;;;7.12;100.00;96878.88;5096585;28;20008;-77
2023/04/17 06:51:46;;;;;;;;;;;;;;;7.15;100.00;96878.50;5096787;28;19935;-72
2023/04/17 06:54:12;;;;;;;;;;;;;;;7.14;100.00;96873.47;5097140;28;19948;-72
2023/04/17 06:56:39;;;;;;;;;;;;;;;7.13;100.00;96877.88;5097112;28;19943;-71
2023/04/17 06:59:05;;;;;;;;;;;;;;;7.10;100.00;96881.66;5096187;28;20294;-72
2023/04/17 07:01:33;;;;;;;;;;;;;;;7.16;100.00;96882.75;5097146;28;19945;-72
2023/04/17 07:03:59;;;;;;;;;;;;;;;7.22;100.00;96881.16;5096247;28;20397;-72
2023/04/17 07:06:26;;;;;;;;;;;;;;;7.24;100.00;96885.19;5096782;28;19940;-73
2023/04/17 07:08:52;;;;;;;;;;;;;;;7.25;100.00;96894.66;5096673;28;20430;-71
2023/04/17 07:11:18;;;;;;;;;;;;;;;7.24;100.00;96887.81;5096776;28;19937;-75
2023/04/17 07:13:44;;;;;;;;;;;;;;;7.24;100.00;96887.00;5095815;28;19936;-69
2023/04/17 07:16:10;;;;;;;;;;;;;;;7.23;100.00;96891.44;5096574;28;19972;-70
2023/04/17 07:18:36;;;;;;;;;;;;;;;7.24;100.00;96892.22;5096588;28;20275;-69
2023/04/17 07:21:02;;;;;;;;;;;;;;;7.25;100.00;96894.66;5096502;28;20309;-70
2023/04/17 07:23:28;;;;;;;;;;;;;;;7.28;100.00;96893.47;5097281;28;19943;-70
2023/04/17 07:25:54;;;;;;;;;;;;;;;7.30;100.00;96897.50;5095130;28;19946;-72
2023/04/17 07:28:20;;;;;;;;;;;;;;;7.32;100.00;96894.72;5096978;28;19965;-84
2023/04/17 07:30:46;;;;;;;;;;;;;;;7.32;100.00;96894.72;5096144;28;19966;-68
2023/04/17 07:33:12;;;;;;;;;;;;;;;7.34;100.00;96899.75;5095274;28;19959;-69
2023/04/17 07:35:38;;;;;;;;;;;;;;;7.34;100.00;96897.94;5096188;28;19949;-69
2023/04/17 07:38:03;;;;;;;;;;;;;;;7.37;100.00;96896.75;5096104;28;20032;-69
2023/04/17 07:40:30;;;;;;;;;;;;;;;7.35;100.00;96904.81;5096067;28;19980;-69
2023/04/17 07:42:56;;;;;;;;;;;;;;;7.32;100.00;96903.34;5096076;28;20397;-69
2023/04/17 07:45:22;;;;;;;;;;;;;;;7.29;100.00;96906.34;5096781;28;19945;-69
2023/04/17 07:47:50;;;;;;;;;;;;;;;7.30;100.00;96904.53;5095833;28;20448;-73
2023/04/17 07:50:15;;;;;;;;;;;;;;;7.29;100.00;96905.53;5095268;28;19943;-77
2023/04/17 07:52:41;;;;;;;;;;;;;;;7.28;100.00;96909.94;5095281;28;20451;-76
2023/04/17 07:55:07;;;;;;;;;;;;;;;7.29;100.00;96913.38;5095963;28;19993;-78
2023/04/17 07:57:33;;;;;;;;;;;;;;;7.29;100.00;96908.94;5095508;28;19984;-77
2023/04/17 07:59:59;;;;;;;;;;;;;;;7.30;100.00;96914.97;5095940;28;20049;-78
2023/04/17 08:02:25;;;;;;;;;;;;;;;7.31;100.00;96906.97;5095448;28;20398;-76
2023/04/17 08:04:51;;;;;;;;;;;;;;;7.41;100.00;96917.09;5095733;28;19958;-70
2023/04/17 08:07:19;;;;;;;;;;;;;;;7.42;100.00;96916.09;5095320;28;19959;-77
2023/04/17 08:09:45;;;;;;;;;;;;;;;7.39;100.00;96919.09;5095355;28;19948;-71
2023/04/17 08:12:11;;;;;;;;;;;;;;;7.37;100.00;96913.25;5096099;28;20406;-72
2023/04/17 08:14:37;;;;;;;;;;;;;;;7.34;100.00;96924.03;5095157;28;19937;-71
2023/04/17 08:17:03;;;;;;;;;;;;;;;7.30;100.00;96922.78;5095114;28;19950;-72
2023/04/17 08:19:29;;;;;;;;;;;;;;;7.28;100.00;96928.19;5094838;28;20401;-72
2023/04/17 08:22:02;;;;;;;;;;;;;;;7.28;100.00;96930.78;5095807;28;19943;-73
2023/04/17 08:24:29;;;;;;;;;;;;;;;7.32;100.00;96933.84;5095263;28;19960;-73
2023/04/17 08:26:55;;;;;;;;;;;;;;;7.34;100.00;96929.25;5095091;28;19936;-78
2023/04/17 08:29:21;;;;;;;;;;;;;;;7.38;100.00;96930.50;5095620;28;20503;-77
2023/04/17 08:31:47;;;;;;;;;;;;;;;7.38;100.00;96930.50;5095673;28;19949;-76
2023/04/17 08:34:13;;;;;;;;;;;;;;;7.42;100.00;96930.94;5095804;28;19943;-77
2023/04/17 08:36:39;;;;;;;;;;;;;;;7.43;100.00;96932.56;5094957;28;20043;-76
2023/04/17 08:39:05;;;;;;;;;;;;;;;7.46;100.00;96932.19;5093794;28;20335;-77
2023/04/17 08:41:38;;;;;;;;;;;;;;;7.51;100.00;96932.44;5094612;28;19951;-75
2023/04/17 08:44:04;;;;;;;;;;;;;;;7.59;100.00;96937.53;5095151;28;19939;-77
2023/04/17 08:46:30;;;;;;;;;;;;;;;7.66;100.00;96938.41;5094789;28;19938;-69
2023/04/17 08:48:56;;;;;;;;;;;;;;;7.70;100.00;96934.41;5095344;28;20002;-69
2023/04/17 08:51:26;;;;;;;;;;;;;;;7.73;100.00;96944.50;5094642;28;19948;-69
2023/04/17 08:53:52;;;;;;;;;;;;;;;7.70;100.00;96937.03;5094615;28;19940;-70
2023/04/17 08:56:19;;;;;;;;;;;;;;;7.69;100.00;96942.47;5094507;28;19938;-69
2023/04/17 08:58:44;;;;;;;;;;;;;;;7.67;100.00;96937.41;5094603;28;19950;-69
2023/04/17 09:01:11;;;;;;;;;;;;;;;7.66;100.00;96942.81;5095169;28;20292;-77
2023/04/17 09:03:46;;;;;;;;;;;;;;;7.67;100.00;96940.03;5094336;28;19931;-74
2023/04/17 09:06:12;;;;;;;;;;;;;;;7.68;100.00;96939.00;5094272;28;19940;-75
2023/04/17 09:08:52;;;;;;;;;;;;;;;7.74;100.00;96942.69;5094128;28;19954;-75
2023/04/17 09:11:18;;;;;;;;;;;;;;;7.82;100.00;96939.94;5094122;28;19943;-75
2023/04/17 09:13:44;;;;;;;;;;;;;;;7.86;100.00;96938.56;5094168;28;19938;-74
2023/04/17 09:16:19;;;;;;;;;;;;;;;7.91;100.00;96938.81;5094112;28;19942;-75
2023/04/17 09:18:46;;;;;;;;;;;;;;;7.95;100.00;96936.63;5094107;28;20295;-77
2023/04/17 09:21:15;;;;;;;;;;;;;;;7.98;100.00;96931.06;5093704;28;19944;-71
2023/04/17 09:23:48;;;;;;;;;;;;;;;8.01;100.00;96932.47;5094170;28;19939;-69
2023/04/17 09:26:18;;;;;;;;;;;;;;;8.05;100.00;96931.91;5094057;28;19944;-70
2023/04/17 09:29:06;;;;;;;;;;;;;;;8.11;100.00;96938.97;5093843;28;19967;-70
2023/04/17 09:31:36;;;;;;;;;;;;;;;8.15;100.00;96936.81;5093914;28;19950;-70
2023/04/17 09:34:03;;;;;;;;;;;;;;;8.17;100.00;96939.19;5093924;28;19967;-70
2023/04/17 09:36:33;;;;;;;;;;;;;;;8.14;100.00;96938.59;5093748;28;20479;-82
2023/04/17 09:39:02;;;;;;;;;;;;;;;8.14;100.00;96941.19;5094555;28;19966;-81
2023/04/17 09:41:28;;;;;;;;;;;;;;;8.13;100.00;96936.97;5093663;28;19942;-69
2023/04/17 09:43:59;;;;;;;;;;;;;;;8.12;100.00;96947.63;5093380;28;19943;-70
2023/04/17 09:46:32;;;;;;;;;;;;;;;8.12;100.00;96940.56;5094196;28;20437;-69
2023/04/17 09:49:06;;;;;;;;;;;;;;;8.16;100.00;96941.00;5094233;28;19968;-70
2023/04/17 09:51:33;;;;;;;;;;;;;;;8.18;100.00;96946.06;5093831;28;19954;-69
2023/04/17 09:54:04;;;;;;;;;;;;;;;8.20;100.00;96944.06;5092460;28;20403;-70
2023/04/17 09:56:32;;;;;;;;;;;;;;;8.22;100.00;96948.09;5093351;28;20394;-73
2023/04/17 09:59:02;;;;;;;;;;;;;;;8.29;100.00;96948.13;5092563;28;20393;-72
2023/04/17 10:01:32;;;;;;;;;;;;;;;8.33;100.00;96942.34;5092511;28;19953;-72
2023/04/17 10:03:59;;;;;;;;;;;;;;;8.36;100.00;96941.16;5093698;28;20313;-72
2023/04/17 10:06:28;;;;;;;;;;;;;;;8.41;100.00;96945.84;5094471;28;20296;-71
2023/04/17 10:08:54;;;;;;;;;;;;;;;8.42;100.00;96943.03;5093523;28;19958;-71
2023/04/17 10:11:23;;;;;;;;;;;;;;;8.43;100.00;96943.84;5093599;28;19944;-71
2023/04/17 10:13:54;;;;;;;;;;;;;;;8.46;100.00;96936.44;5093877;28;19938;-72
2023/04/17 10:16:31;;;;;;;;;;;;;;;8.52;100.00;96937.47;5094385;28;19936;-73
2023/04/17 10:19:16;;;;;;;;;;;;;;;8.58;100.00;96933.28;5094416;28;19940;-73
2023/04/17 10:21:42;;;;;;;;;;;;;;;8.60;100.00;96929.47;5093507;28;19954;-72
2023/04/17 10:24:23;;;;;;;;;;;;;;;8.63;100.00;96929.09;5093999;28;19943;-72
2023/04/17 10:26:49;;;;;;;;;;;;;;;8.74;100.00;96927.72;5093384;28;19944;-73
2023/04/17 10:29:15;;;;;;;;;;;;;;;9.08;100.00;96928.66;5093015;28;20431;-73
2023/04/17 10:31:59;;;;;;;;;;;;;;;9.29;100.00;96922.50;5093773;28;19949;-70
2023/04/17 10:34:35;;;;;;;;;;;;;;;9.35;100.00;96921.69;5092009;28;19946;-82
2023/04/17 10:37:02;;;;;;;;;;;;;;;9.36;100.00;96918.06;5093073;28;19969;-70
2023/04/17 10:39:47;;;;;;;;;;;;;;;9.36;100.00;96918.06;5094033;28;19945;-70
2023/04/17 10:42:16;;;;;;;;;;;;;;;9.41;100.00;96917.47;5093579;28;19934;-71
2023/04/17 10:44:44;;;;;;;;;;;;;;;9.47;100.00;96922.75;5093507;28;20304;-70
2023/04/17 10:47:13;;;;;;;;;;;;;;;9.48;100.00;96908.63;5093501;28;20391;-71
2023/04/17 10:50:05;;;;;;;;;;;;;;;9.48;100.00;96911.25;5092976;28;19967;-70
2023/04/17 10:52:31;;;;;;;;;;;;;;;9.48;100.00;96919.09;5090663;28;19945;-73
2023/04/17 10:55:17;;;;;;;;;;;;;;;9.42;100.00;96912.03;5093127;28;19942;-83
2023/04/17 10:57:52;;;;;;;;;;;;;;;9.32;100.00;96915.06;5092792;28;20318;-84
2023/04/17 11:00:18;;;;;;;;;;;;;;;9.30;100.00;96914.44;5093538;28;19944;-85
2023/04/17 11:02:44;;;;;;;;;;;;;;;9.30;100.00;96917.06;5092299;28;19951;-82
2023/04/17 11:05:10;;;;;;;;;;;;;;;9.31;100.00;96913.44;5093526;28;19938;-84
2023/04/17 11:07:36;;;;;;;;;;;;;;;9.40;100.00;96914.06;5094116;28;20409;-82
2023/04/17 11:10:05;;;;;;;;;;;;;;;9.48;100.00;96911.25;5096408;28;19945;-73
2023/04/17 11:12:31;;;;;;;;;;;;;;;9.61;100.00;96907.84;5096755;28;20383;-72
2023/04/17 11:15:04;;;;;;;;;;;;;;;9.71;100.00;96900.41;5096382;28;20049;-71
2023/04/17 11:17:30;;;;;;;;;;;;;;;9.74;100.00;96905.25;5096428;28;20419;-72
2023/04/17 11:19:57;;;;;;;;;;;;;;;9.77;100.00;96909.28;5096259;28;19939;-72
2023/04/17 11:22:23;;;;;;;;;;;;;;;9.73;100.00;96894.97;5096308;28;19940;-71
2023/04/17 11:24:50;;;;;;;;;;;;;;;9.64;100.00;96904.84;5096669;28;19951;-71
2023/04/17 11:27:16;;;;;;;;;;;;;;;9.54;100.00;96896.56;5096029;28;19941;-72
2023/04/17 11:29:43;;;;;;;;;;;;;;;9.48;100.00;96897.34;5096361;28;20009;-71
2023/04/17 11:32:10;;;;;;;;;;;;;;;9.41;100.00;96907.81;5096013;28;19943;-73
2023/04/17 11:34:36;;;;;;;;;;;;;;;9.34;100.00;96902.59;5095892;28;20291;-73
2023/04/17 11:37:03;;;;;;;;;;;;;;;9.22;100.00;96901.53;5095777;28;19995;-73
2023/04/17 11:39:30;;;;;;;;;;;;;;;9.17;100.00;96901.31;5095870;28;19943;-73
2023/04/17 11:41:56;;;;;;;;;;;;;;;9.19;100.00;96903.75;5095794;28;19951;-73
2023/04/17 11:44:23;;;;;;;;;;;;;;;9.17;100.00;96906.53;5095743;28;19949;-73
2023/04/17 11:46:50;;;;;;;;;;;;;;;9.09;100.00;96899.69;5095754;28;19945;-83
2023/04/17 11:49:22;;;;;;;;;;;;;;;9.12;100.00;96904.53;5095589;28;19958;-72
2023/04/17 11:51:47;;;;;;;;;;;;;;;9.17;100.00;96906.53;5096508;28;19950;-71
2023/04/17 11:54:40;;;;;;;;;;;;;;;9.19;100.00;96909.78;5095599;28;19935;-72
2023/04/17 11:57:10;;;;;;;;;;;;;;;9.26;100.00;96909.78;5092722;28;19943;-71
2023/04/17 11:59:37;;;;;;;;;;;;;;;9.32;100.00;96903.75;5096078;28;19958;-71
2023/04/17 12:02:05;;;;;;;;;;;;;;;9.40;100.00;96911.44;5095543;28;19958;-72
2023/04/17 12:04:35;;;;;;;;;;;;;;;9.49;100.00;96896.34;5095502;28;19937;-76
2023/04/17 12:07:01;;;;;;;;;;;;;;;9.49;100.00;96894.56;5094925;28;19951;-73
2023/04/17 12:09:30;;;;;;;;;;;;;;;9.71;100.00;96910.06;5095255;28;19962;-72
2023/04/17 12:11:57;;;;;;;;;;;;;;;10.17;100.00;96901.38;5095170;28;19944;-72
2023/04/17 12:14:23;;;;;;;;;;;;;;;10.38;100.00;96879.41;5094200;28;20276;-73
2023/04/17 12:16:50;;;;;;;;;;;;;;;10.54;100.00;96876.34;5095226;28;19951;-72
2023/04/17 12:19:18;;;;;;;;;;;;;;;10.86;100.00;96873.00;5095431;28;19938;-73
2023/04/17 12:21:45;;;;;;;;;;;;;;;11.17;100.00;96859.06;5095102;28;20408;-70
2023/04/17 12:24:11;;;;;;;;;;;;;;;11.35;93.73;96829.50;5095087;28;19937;-73
2023/04/17 12:26:43;;;;;;;;;;;;;;;11.39;94.06;96849.06;5095494;28;20028;-75
2023/04/17 12:29:09;;;;;;;;;;;;;;;11.30;92.41;96826.72;5095395;28;19954;-76
2023/04/17 12:31:35;;;;;;;;;;;;;;;11.30;97.84;96859.00;5094948;28;19943;-77
2023/04/17 12:34:01;;;;;;;;;;;;;;;11.41;90.00;96810.25;5094771;28;19936;-77
2023/04/17 12:36:27;;;;;;;;;;;;;;;11.40;91.48;96805.22;5094821;28;19966;-76
2023/04/17 12:38:53;;;;;;;;;;;;;;;11.37;96.61;96861.59;5094771;28;19949;-77
2023/04/17 12:41:19;;;;;;;;;;;;;;;11.34;100.00;96870.72;5094720;28;19986;-72
2023/04/17 12:43:45;;;;;;;;;;;;;;;11.29;99.34;96867.09;5076585;28;19940;-76
2023/04/17 12:46:10;;;;;;;;;;;;;;;11.21;99.87;96868.16;5094536;28;19945;-77